createdAt,value
2018-09-25T00:02:34.342Z,6.50
2018-09-25T00:05:51.160Z,6.50
2018-09-25T00:09:08.063Z,6.50
2018-09-25T00:12:24.957Z,6.50
2018-09-25T00:15:41.622Z,6.40
2018-09-25T00:18:58.480Z,6.40
2018-09-25T00:22:15.104Z,6.30
2018-09-25T00:25:31.790Z,6.30
2018-09-25T00:28:48.586Z,6.20
2018-09-25T00:32:05.263Z,6.30
2018-09-25T00:35:22.141Z,6.20
2018-09-25T00:38:38.986Z,6.10
2018-09-25T00:41:55.855Z,6.10
2018-09-25T00:45:12.496Z,6.10
2018-09-25T00:48:29.275Z,5.90
2018-09-25T00:51:46.532Z,5.90
2018-09-25T00:55:03.043Z,5.90
2018-09-25T00:58:19.829Z,5.90
2018-09-25T01:01:36.662Z,5.90
2018-09-25T01:04:53.333Z,5.90
2018-09-25T01:08:10.447Z,5.70
2018-09-25T01:11:26.983Z,5.60
2018-09-25T01:14:43.754Z,5.60
2018-09-25T01:18:00.572Z,5.50
2018-09-25T01:21:17.595Z,5.50
2018-09-25T01:24:34.327Z,5.40
2018-09-25T01:27:50.985Z,5.50
2018-09-25T01:31:07.902Z,5.40
2018-09-25T01:34:26.713Z,5.40
2018-09-25T01:37:43.637Z,5.30
2018-09-25T01:41:00.629Z,5.20
2018-09-25T01:44:17.308Z,5.20
2018-09-25T01:47:33.841Z,5.20
2018-09-25T01:50:50.487Z,5.10
2018-09-25T01:54:07.832Z,5.10
2018-09-25T01:57:24.392Z,5.20
2018-09-25T02:00:41.185Z,5.10
2018-09-25T02:03:57.912Z,5.10
2018-09-25T02:07:14.432Z,5.10
2018-09-25T02:10:31.319Z,5.10
2018-09-25T02:13:48.050Z,5.20
2018-09-25T02:17:04.964Z,5.20
2018-09-25T02:20:22.144Z,5.30
2018-09-25T02:23:38.304Z,5.30
2018-09-25T02:26:54.796Z,5.30
2018-09-25T02:30:12.157Z,5.20
2018-09-25T02:33:28.676Z,5.20
2018-09-25T02:36:45.687Z,5.20
2018-09-25T02:40:02.523Z,5.20
2018-09-25T02:43:19.347Z,5.30
2018-09-25T02:46:36.030Z,5.20
2018-09-25T02:49:53.028Z,5.30
2018-09-25T02:53:09.926Z,5.30
2018-09-25T02:56:26.781Z,5.20
2018-09-25T02:59:43.524Z,5.20
2018-09-25T03:03:00.788Z,5.20
2018-09-25T03:06:18.639Z,5.20
2018-09-25T03:09:35.290Z,5.00
2018-09-25T03:12:52.504Z,5.10
2018-09-25T03:16:09.179Z,5.10
2018-09-25T03:19:26.425Z,5.00
2018-09-25T03:22:43.879Z,5.00
2018-09-25T03:26:00.666Z,4.90
2018-09-25T03:29:17.458Z,4.90
2018-09-25T03:32:33.872Z,4.90
2018-09-25T03:35:51.213Z,4.70
2018-09-25T03:39:08.449Z,4.70
2018-09-25T03:42:24.990Z,4.60
2018-09-25T03:45:42.353Z,4.60
2018-09-25T03:48:58.771Z,4.60
2018-09-25T03:52:15.497Z,4.60
2018-09-25T03:55:32.173Z,4.60
2018-09-25T03:58:49.514Z,4.50
2018-09-25T04:02:06.144Z,4.40
2018-09-25T04:05:22.846Z,4.30
2018-09-25T04:08:39.181Z,4.30
2018-09-25T04:11:56.219Z,4.30
2018-09-25T04:15:12.981Z,4.40
2018-09-25T04:18:29.748Z,4.30
2018-09-25T04:21:46.290Z,4.40
2018-09-25T04:25:03.172Z,4.40
2018-09-25T04:28:19.942Z,4.50
2018-09-25T04:31:37.191Z,4.40
2018-09-25T04:34:54.081Z,4.50
2018-09-25T04:38:11.383Z,4.50
2018-09-25T04:41:27.848Z,4.50
2018-09-25T04:44:44.406Z,4.40
2018-09-25T04:48:01.402Z,4.30
2018-09-25T04:51:18.134Z,4.30
2018-09-25T04:54:35.125Z,4.30
2018-09-25T04:57:51.649Z,4.30
2018-09-25T05:01:15.043Z,4.30
2018-09-25T05:04:32.312Z,4.20
2018-09-25T05:07:49.273Z,4.20
2018-09-25T05:11:06.078Z,4.30
2018-09-25T05:14:34.464Z,4.30
2018-09-25T05:17:54.648Z,4.20
2018-09-25T05:21:18.654Z,4.20
2018-09-25T05:24:35.517Z,4.10
2018-09-25T05:27:52.479Z,4.10
2018-09-25T05:31:09.819Z,3.90
2018-09-25T05:34:27.099Z,3.90
2018-09-25T05:37:43.533Z,3.90
2018-09-25T05:40:59.949Z,4.00
2018-09-25T05:44:16.530Z,4.00
2018-09-25T05:47:33.493Z,4.10
2018-09-25T05:50:50.407Z,4.20
2018-09-25T05:54:07.043Z,4.00
2018-09-25T05:57:24.302Z,3.80
2018-09-25T06:00:41.000Z,3.70
2018-09-25T06:03:57.839Z,3.70
2018-09-25T06:07:14.542Z,3.80
2018-09-25T06:10:31.568Z,3.90
2018-09-25T06:13:48.136Z,4.00
2018-09-25T06:17:05.079Z,4.10
2018-09-25T06:20:21.954Z,4.30
2018-09-25T06:23:38.824Z,4.40
2018-09-25T06:26:55.737Z,4.50
2018-09-25T06:30:12.964Z,4.60
2018-09-25T06:33:29.381Z,4.80
2018-09-25T06:36:46.213Z,4.90
2018-09-25T06:40:03.252Z,5.00
2018-09-25T06:43:20.107Z,5.10
2018-09-25T06:46:37.045Z,5.20
2018-09-25T06:49:54.092Z,5.30
2018-09-25T06:53:10.777Z,5.40
2018-09-25T06:56:27.593Z,5.50
2018-09-25T06:59:44.390Z,5.60
2018-09-25T07:03:01.415Z,5.70
2018-09-25T07:06:18.483Z,5.70
2018-09-25T07:09:35.395Z,5.80
2018-09-25T07:12:52.688Z,5.90
2018-09-25T07:16:09.957Z,6.00
2018-09-25T07:19:26.934Z,6.10
2018-09-25T07:22:43.519Z,6.20
2018-09-25T07:26:00.288Z,6.30
2018-09-25T07:29:17.176Z,6.40
2018-09-25T07:32:34.267Z,6.50
2018-09-25T07:35:51.684Z,6.60
2018-09-25T07:39:09.015Z,6.70
2018-09-25T07:42:25.590Z,6.80
2018-09-25T07:45:42.510Z,6.90
2018-09-25T07:48:59.512Z,6.90
2018-09-25T07:52:16.426Z,7.10
2018-09-25T07:55:33.445Z,7.00
2018-09-25T07:58:50.378Z,7.00
2018-09-25T08:02:07.316Z,7.00
2018-09-25T08:05:23.904Z,7.00
2018-09-25T08:08:41.444Z,7.10
2018-09-25T08:11:58.501Z,7.20
2018-09-25T08:15:15.522Z,7.30
2018-09-25T08:18:32.258Z,7.40
2018-09-25T08:21:50.748Z,7.40
2018-09-25T08:25:08.022Z,7.40
2018-09-25T08:28:24.612Z,7.50
2018-09-25T08:31:41.689Z,7.50
2018-09-25T08:34:58.976Z,7.60
2018-09-25T08:38:15.792Z,7.60
2018-09-25T08:41:32.851Z,7.70
2018-09-25T08:44:49.040Z,7.70
2018-09-25T08:48:05.878Z,7.80
2018-09-25T08:51:22.785Z,7.90
2018-09-25T08:54:39.469Z,7.90
2018-09-25T08:58:01.894Z,8.00
2018-09-25T09:01:19.310Z,8.10
2018-09-25T09:04:35.648Z,8.20
2018-09-25T09:07:52.769Z,8.20
2018-09-25T09:11:10.216Z,8.20
2018-09-25T09:14:27.282Z,8.20
2018-09-25T09:17:44.304Z,8.30
2018-09-25T09:21:01.077Z,8.40
2018-09-25T09:24:17.999Z,8.90
2018-09-25T09:27:34.730Z,8.80
2018-09-25T09:30:51.545Z,8.70
2018-09-25T09:34:08.320Z,8.70
2018-09-25T09:37:24.922Z,9.10
2018-09-25T09:40:41.865Z,9.20
2018-09-25T09:43:59.185Z,9.30
2018-09-25T09:47:15.653Z,9.40
2018-09-25T09:50:32.673Z,9.30
2018-09-25T09:53:50.140Z,9.20
2018-09-25T09:57:06.872Z,9.30
2018-09-25T10:00:23.629Z,9.50
2018-09-25T10:03:40.428Z,9.70
2018-09-25T10:06:57.437Z,9.90
2018-09-25T10:10:14.317Z,10.10
2018-09-25T10:13:31.023Z,9.90
2018-09-25T10:16:47.718Z,9.90
2018-09-25T10:20:04.326Z,9.70
2018-09-25T10:23:20.488Z,9.80
2018-09-25T10:26:36.781Z,9.90
2018-09-25T10:29:53.568Z,10.10
2018-09-25T10:33:10.704Z,10.10
2018-09-25T10:36:27.886Z,10.20
2018-09-25T10:39:44.531Z,10.40
2018-09-25T10:43:01.478Z,10.30
2018-09-25T10:46:18.337Z,10.40
2018-09-25T10:49:35.198Z,10.60
2018-09-25T10:52:52.486Z,10.70
2018-09-25T10:56:09.796Z,10.60
2018-09-25T10:59:27.055Z,10.70
2018-09-25T11:02:43.522Z,10.60
2018-09-25T11:06:00.715Z,10.90
2018-09-25T11:09:17.415Z,10.80
2018-09-25T11:12:34.345Z,10.90
2018-09-25T11:15:51.572Z,10.80
2018-09-25T11:19:08.443Z,10.70
2018-09-25T11:22:25.799Z,10.50
2018-09-25T11:25:42.442Z,10.40
2018-09-25T11:28:59.470Z,10.60
2018-09-25T11:32:16.013Z,10.80
2018-09-25T11:35:32.956Z,10.80
2018-09-25T11:38:49.642Z,11.00
2018-09-25T11:42:06.421Z,11.20
2018-09-25T11:45:23.392Z,11.30
2018-09-25T11:48:40.413Z,11.10
2018-09-25T11:51:57.724Z,11.00
2018-09-25T11:55:14.411Z,11.10
2018-09-25T11:58:31.492Z,11.10
2018-09-25T12:01:50.135Z,11.00
2018-09-25T12:05:06.437Z,11.20
2018-09-25T12:08:23.308Z,11.30
2018-09-25T12:11:40.191Z,11.40
2018-09-25T12:14:57.017Z,11.70
2018-09-25T12:18:14.166Z,11.90
2018-09-25T12:21:30.660Z,11.90
2018-09-25T12:24:47.638Z,11.60
2018-09-25T12:28:04.960Z,11.80
2018-09-25T12:31:21.536Z,11.90
2018-09-25T12:34:38.411Z,11.60
2018-09-25T12:37:54.860Z,11.60
2018-09-25T12:41:11.970Z,11.50
2018-09-25T12:44:28.658Z,11.70
2018-09-25T12:47:45.255Z,11.90
2018-09-25T12:51:02.378Z,11.90
2018-09-25T12:54:18.423Z,11.90
2018-09-25T12:57:35.227Z,11.70
2018-09-25T13:00:51.999Z,11.70
2018-09-25T13:04:08.833Z,11.90
2018-09-25T13:07:25.846Z,11.80
2018-09-25T13:10:42.729Z,11.90
2018-09-25T13:13:59.760Z,12.10
2018-09-25T13:17:16.719Z,12.00
2018-09-25T13:20:34.019Z,11.70
2018-09-25T13:23:50.682Z,12.10
2018-09-25T13:27:07.526Z,12.20
2018-09-25T13:30:24.254Z,12.10
2018-09-25T13:33:40.754Z,11.70
2018-09-25T13:36:57.759Z,11.70
2018-09-25T13:40:15.155Z,11.60
2018-09-25T13:43:31.935Z,11.70
2018-09-25T13:46:48.945Z,11.90
2018-09-25T13:50:05.924Z,11.90
2018-09-25T13:53:22.450Z,11.90
2018-09-25T13:56:39.466Z,12.10
2018-09-25T13:59:56.543Z,12.30
2018-09-25T14:03:13.591Z,12.30
2018-09-25T14:06:30.119Z,12.30
2018-09-25T14:09:46.333Z,12.50
2018-09-25T14:13:03.216Z,12.30
2018-09-25T14:16:20.548Z,12.20
2018-09-25T14:19:37.272Z,12.30
2018-09-25T14:22:54.509Z,12.20
2018-09-25T14:26:11.145Z,12.30
2018-09-25T14:29:27.911Z,12.30
2018-09-25T14:32:44.786Z,12.30
2018-09-25T14:36:01.104Z,12.30
2018-09-25T14:39:18.324Z,12.20
2018-09-25T14:42:35.412Z,12.10
2018-09-25T14:45:52.571Z,12.10
2018-09-25T14:49:09.273Z,11.90
2018-09-25T14:52:26.201Z,11.70
2018-09-25T14:55:43.201Z,11.40
2018-09-25T14:59:00.060Z,11.50
2018-09-25T15:02:17.297Z,11.30
2018-09-25T15:05:33.886Z,11.40
2018-09-25T15:08:50.095Z,11.50
2018-09-25T15:12:07.126Z,11.90
2018-09-25T15:15:24.086Z,12.10
2018-09-25T15:18:41.136Z,11.90
2018-09-25T15:21:57.423Z,12.20
2018-09-25T15:25:14.999Z,12.40
2018-09-25T15:28:31.400Z,12.40
2018-09-25T15:31:58.486Z,12.70
2018-09-25T15:35:15.020Z,12.40
2018-09-25T15:38:32.041Z,12.20
2018-09-25T15:41:49.501Z,11.90
2018-09-25T15:45:05.847Z,11.60
2018-09-25T15:48:22.504Z,11.60
2018-09-25T15:51:39.462Z,11.50
2018-09-25T15:54:56.263Z,11.40
2018-09-25T15:58:13.549Z,11.30
2018-09-25T16:01:30.377Z,11.30
2018-09-25T16:04:47.166Z,11.20
2018-09-25T16:08:03.872Z,11.10
2018-09-25T16:11:20.194Z,11.20
2018-09-25T16:14:37.250Z,11.10
2018-09-25T16:17:54.311Z,11.00
2018-09-25T16:21:11.168Z,10.90
2018-09-25T16:24:27.954Z,10.80
2018-09-25T16:27:45.297Z,10.80
2018-09-25T16:31:01.792Z,10.80
2018-09-25T16:34:19.255Z,10.80
2018-09-25T16:37:36.284Z,10.80
2018-09-25T16:40:53.215Z,10.70
2018-09-25T16:44:10.257Z,10.70
2018-09-25T16:47:26.853Z,10.60
2018-09-25T16:50:43.743Z,10.50
2018-09-25T16:54:00.816Z,10.50
2018-09-25T16:57:17.824Z,10.50
2018-09-25T17:00:34.588Z,10.30
2018-09-25T17:03:51.202Z,10.30
2018-09-25T17:07:08.110Z,10.20
2018-09-25T17:10:25.266Z,10.20
2018-09-25T17:13:42.118Z,10.00
2018-09-25T17:16:59.194Z,10.00
2018-09-25T17:20:15.941Z,9.80
2018-09-25T17:23:33.176Z,9.70
2018-09-25T17:26:49.966Z,9.60
2018-09-25T17:30:06.825Z,9.40
2018-09-25T17:33:23.692Z,9.40
2018-09-25T17:36:40.576Z,9.20
2018-09-25T17:39:57.512Z,9.20
2018-09-25T17:43:14.987Z,9.00
2018-09-25T17:46:31.844Z,9.00
2018-09-25T17:49:48.735Z,8.90
2018-09-25T17:53:05.644Z,8.90
2018-09-25T17:56:22.758Z,8.80
2018-09-25T17:59:40.045Z,8.60
2018-09-25T18:02:56.959Z,8.50
2018-09-25T18:06:13.974Z,8.50
2018-09-25T18:09:30.940Z,8.40
2018-09-25T18:12:47.972Z,8.30
2018-09-25T18:16:05.088Z,8.10
2018-09-25T18:19:22.200Z,8.10
2018-09-25T18:22:39.233Z,8.10
2018-09-25T18:25:55.902Z,7.90
2018-09-25T18:29:12.765Z,7.60
2018-09-25T18:32:30.141Z,7.60
2018-09-25T18:35:46.563Z,7.40
2018-09-25T18:39:03.425Z,7.50
2018-09-25T18:42:20.177Z,7.50
2018-09-25T18:45:36.695Z,7.40
2018-09-25T18:48:53.501Z,7.30
2018-09-25T18:52:10.920Z,7.30
2018-09-25T18:55:27.444Z,7.20
2018-09-25T18:58:44.219Z,7.00
2018-09-25T19:02:01.435Z,7.00
2018-09-25T19:05:18.416Z,6.90
2018-09-25T19:08:35.436Z,7.00
2018-09-25T19:11:52.345Z,6.90
2018-09-25T19:15:09.096Z,6.80
2018-09-25T19:18:26.078Z,6.80
2018-09-25T19:21:42.974Z,6.80
2018-09-25T19:24:59.962Z,6.60
2018-09-25T19:28:25.047Z,6.60
2018-09-25T19:31:41.635Z,6.50
2018-09-25T19:34:59.089Z,6.50
2018-09-25T19:38:15.395Z,6.40
2018-09-25T19:41:32.402Z,6.30
2018-09-25T19:44:49.273Z,6.30
2018-09-25T19:48:05.877Z,6.30
2018-09-25T19:51:22.689Z,6.20
2018-09-25T19:54:39.781Z,6.10
2018-09-25T19:57:56.740Z,6.10
2018-09-25T20:01:13.429Z,6.20
2018-09-25T20:04:30.489Z,6.10
2018-09-25T20:07:46.960Z,6.10
2018-09-25T20:11:03.493Z,6.10
2018-09-25T20:14:20.568Z,6.20
2018-09-25T20:17:37.599Z,6.10
2018-09-25T20:20:54.268Z,6.10
2018-09-25T20:24:11.870Z,6.00
2018-09-25T20:27:28.110Z,6.00
2018-09-25T20:30:45.140Z,6.00
2018-09-25T20:34:01.975Z,6.00
2018-09-25T20:37:19.114Z,5.90
2018-09-25T20:40:35.707Z,5.80
2018-09-25T20:43:52.738Z,5.80
2018-09-25T20:47:08.878Z,5.70
2018-09-25T20:50:25.253Z,5.60
2018-09-25T20:53:41.986Z,5.50
2018-09-25T20:56:58.812Z,5.50
2018-09-25T21:00:15.810Z,5.40
2018-09-25T21:03:32.596Z,5.40
2018-09-25T21:06:49.447Z,5.30
2018-09-25T21:10:06.519Z,5.20
2018-09-25T21:13:23.041Z,5.20
2018-09-25T21:16:40.199Z,5.20
2018-09-25T21:19:57.194Z,5.20
2018-09-25T21:23:14.137Z,5.20
2018-09-25T21:26:31.019Z,5.30
2018-09-25T21:29:47.987Z,5.30
2018-09-25T21:33:04.990Z,5.20
2018-09-25T21:36:21.240Z,5.20
2018-09-25T21:39:38.534Z,5.10
2018-09-25T21:42:55.059Z,5.10
2018-09-25T21:46:12.021Z,5.00
2018-09-25T21:49:28.823Z,4.90
2018-09-25T21:52:45.678Z,4.90
2018-09-25T21:56:02.123Z,4.80
2018-09-25T21:59:19.160Z,4.80
2018-09-25T22:02:36.114Z,4.80
2018-09-25T22:05:53.039Z,4.60
2018-09-25T22:09:12.004Z,4.60
2018-09-25T22:12:28.932Z,4.60
2018-09-25T22:15:45.926Z,4.60
2018-09-25T22:19:02.542Z,4.60
2018-09-25T22:22:19.780Z,4.60
2018-09-25T22:25:37.129Z,4.60
2018-09-25T22:28:53.831Z,4.50
2018-09-25T22:32:10.681Z,4.40
2018-09-25T22:35:27.397Z,4.40
2018-09-25T22:38:44.097Z,4.30
2018-09-25T22:42:01.726Z,4.30
2018-09-25T22:45:17.730Z,4.30
2018-09-25T22:48:34.767Z,4.20
2018-09-25T22:51:51.648Z,4.30
2018-09-25T22:55:08.716Z,4.20
2018-09-25T22:58:25.672Z,4.20
2018-09-25T23:01:42.771Z,4.20
2018-09-25T23:04:59.800Z,4.10
2018-09-25T23:08:16.593Z,4.20
2018-09-25T23:11:33.089Z,4.10
2018-09-25T23:14:50.024Z,4.10
2018-09-25T23:18:06.274Z,4.10
2018-09-25T23:21:23.227Z,4.00
2018-09-25T23:24:40.025Z,4.00
2018-09-25T23:27:56.971Z,3.90
2018-09-25T23:31:13.566Z,4.00
2018-09-25T23:34:30.834Z,4.00
2018-09-25T23:37:47.525Z,3.90
2018-09-25T23:41:37.645Z,3.90
2018-09-25T23:45:00.229Z,3.80
2018-09-25T23:48:15.887Z,3.80
2018-09-25T23:53:40.465Z,3.70
2018-09-25T23:57:30.046Z,3.70
